Time;durP1;ratioP1;P1;durP2;ratioP2;P2;SDS_P1;SDS_P2;PMS_P1;PMS_P2;Temp;Humidity;BMP_temperature;BMP_pressure;BME280_temperature;BME280_humidity;BME280_pressure;Samples;Min_cycle;Max_cycle;Signal;HPM_P1;HPM_P2
2023/08/07 00:00:46;;;;;;;0.50;0.20;;;;;;;16.69;81.13;98820.23;103901;277;175005;-73
2023/08/07 00:03:38;;;;;;;0.20;0.20;;;;;;;16.60;81.14;98827.16;103994;276;38217;-73
2023/08/07 00:06:13;;;;;;;0.60;0.20;;;;;;;16.54;81.23;98835.20;104069;277;38534;-74
2023/08/07 00:08:48;;;;;;;0.60;0.20;;;;;;;16.49;81.70;98839.55;103830;277;38263;-74
2023/08/07 00:11:22;;;;;;;0.70;0.20;;;;;;;16.46;82.07;98846.80;104065;277;38263;-74
2023/08/07 00:13:57;;;;;;;0.50;0.30;;;;;;;16.45;82.38;98854.30;104003;277;38290;-75
2023/08/07 00:16:33;;;;;;;0.80;0.30;;;;;;;16.43;82.57;98859.42;104002;277;39961;-74
2023/08/07 00:19:08;;;;;;;0.40;0.20;;;;;;;16.39;82.62;98862.80;103984;276;38384;-73
2023/08/07 00:21:45;;;;;;;0.20;0.20;;;;;;;16.36;82.81;98858.98;104002;277;38249;-76
2023/08/07 00:24:19;;;;;;;0.30;0.20;;;;;;;16.35;83.02;98858.75;104039;277;39452;-76
2023/08/07 00:26:53;;;;;;;0.40;0.20;;;;;;;16.33;82.94;98864.48;103926;277;175040;-74
2023/08/07 00:29:30;;;;;;;1.30;0.20;;;;;;;16.29;83.11;98860.28;103996;277;38273;-73
2023/08/07 00:32:05;;;;;;;1.00;0.40;;;;;;;16.26;83.38;98853.86;104040;277;39401;-73
2023/08/07 00:34:41;;;;;;;0.60;0.20;;;;;;;16.24;83.82;98853.80;103997;277;38455;-73
2023/08/07 00:37:15;;;;;;;0.50;0.30;;;;;;;16.22;83.88;98854.35;104043;277;40338;-74
2023/08/07 00:39:50;;;;;;;0.80;0.60;;;;;;;16.20;84.07;98853.70;104026;277;39939;-75
2023/08/07 00:42:24;;;;;;;1.00;0.40;;;;;;;16.18;84.51;98853.30;104031;277;38248;-74
2023/08/07 00:44:58;;;;;;;0.30;0.20;;;;;;;16.16;84.47;98849.20;104054;277;39666;-75
2023/08/07 00:47:33;;;;;;;1.60;0.40;;;;;;;16.15;84.64;98852.54;104018;277;38271;-75
2023/08/07 00:50:11;;;;;;;0.70;0.40;;;;;;;16.15;84.71;98851.31;104029;277;38227;-75
2023/08/07 00:52:45;;;;;;;0.60;0.40;;;;;;;16.12;84.83;98836.55;104051;277;38217;-74
2023/08/07 00:55:21;;;;;;;1.20;0.60;;;;;;;16.11;84.83;98835.10;104000;277;38526;-75
2023/08/07 00:57:55;;;;;;;0.60;0.30;;;;;;;16.09;84.96;98829.14;104026;277;38462;-73
2023/08/07 01:00:32;;;;;;;0.70;0.30;;;;;;;16.09;85.31;98828.77;104009;277;39917;-73
2023/08/07 01:03:07;;;;;;;0.60;0.40;;;;;;;16.09;84.92;98828.95;104053;276;39447;-74
2023/08/07 01:05:47;;;;;;;0.50;0.40;;;;;;;16.10;85.09;98826.92;104000;277;39645;-77
2023/08/07 01:08:22;;;;;;;0.90;0.60;;;;;;;16.09;85.11;98825.78;104039;277;39360;-76
2023/08/07 01:11:12;;;;;;;2.20;0.60;;;;;;;16.04;84.67;98827.20;104054;277;38416;-75
2023/08/07 01:13:51;;;;;;;1.00;0.50;;;;;;;16.00;84.99;98827.54;104007;277;40182;-74
2023/08/07 01:16:32;;;;;;;1.70;0.80;;;;;;;15.99;85.15;98823.20;104081;265;39655;-74
2023/08/07 01:19:06;;;;;;;1.30;0.50;;;;;;;16.01;85.42;98820.10;104066;277;38732;-72
2023/08/07 01:21:40;;;;;;;1.30;0.60;;;;;;;16.01;85.47;98815.02;103863;277;38438;-76
2023/08/07 01:24:14;;;;;;;0.60;0.60;;;;;;;16.02;85.55;98821.10;103833;277;38269;-73
2023/08/07 01:26:48;;;;;;;0.60;0.60;;;;;;;15.99;85.48;98820.75;104081;277;38221;-74
2023/08/07 01:29:27;;;;;;;1.90;0.60;;;;;;;15.96;85.51;98822.09;104016;277;39428;-75
2023/08/07 01:32:03;;;;;;;2.00;0.60;;;;;;;15.94;85.70;98817.15;104072;274;39963;-74
2023/08/07 01:34:37;;;;;;;1.60;0.60;;;;;;;15.93;86.10;98831.69;104065;277;39828;-73
2023/08/07 01:37:13;;;;;;;1.00;0.50;;;;;;;15.95;86.24;98837.87;104058;277;38322;-72
2023/08/07 01:39:47;;;;;;;3.20;0.60;;;;;;;15.92;86.21;98833.51;104019;277;38779;-72
2023/08/07 01:42:24;;;;;;;0.70;0.70;;;;;;;15.91;86.49;98829.06;103936;277;175828;-75
2023/08/07 01:44:58;;;;;;;0.80;0.80;;;;;;;15.91;86.38;98834.17;104033;277;38595;-72
2023/08/07 01:47:36;;;;;;;2.00;0.70;;;;;;;15.91;86.59;98842.42;104065;277;38563;-73
2023/08/07 01:50:10;;;;;;;1.10;0.70;;;;;;;15.89;86.42;98850.85;104034;277;40453;-75
2023/08/07 01:52:47;;;;;;;0.90;0.70;;;;;;;15.87;86.50;98853.30;104059;277;38654;-73
2023/08/07 01:55:24;;;;;;;2.50;0.70;;;;;;;15.84;86.61;98847.36;103876;277;38550;-73
2023/08/07 01:58:02;;;;;;;2.40;1.00;;;;;;;15.83;86.87;98855.39;104028;277;39393;-75
2023/08/07 02:00:42;;;;;;;1.60;0.90;;;;;;;15.83;87.02;98852.23;104050;277;39440;-74
2023/08/07 02:03:16;;;;;;;0.90;0.80;;;;;;;15.84;86.96;98843.18;103832;277;38822;-76
2023/08/07 02:05:51;;;;;;;2.20;0.70;;;;;;;15.85;87.23;98832.86;104047;277;38214;-75
2023/08/07 02:08:27;;;;;;;1.60;0.80;;;;;;;15.84;86.99;98820.48;104020;277;38370;-72
2023/08/07 02:11:02;;;;;;;2.40;0.70;;;;;;;15.84;86.97;98815.05;104025;277;38404;-74
2023/08/07 02:13:36;;;;;;;3.10;0.80;;;;;;;15.83;86.93;98820.05;104012;274;40082;-74
2023/08/07 02:16:10;;;;;;;2.00;0.70;;;;;;;15.82;86.91;98823.67;104030;277;39176;-74
2023/08/07 02:18:44;;;;;;;2.90;0.90;;;;;;;15.84;87.06;98826.85;104030;277;39412;-74
2023/08/07 02:21:18;;;;;;;1.30;0.70;;;;;;;15.82;86.92;98829.05;104045;277;38248;-74
2023/08/07 02:23:52;;;;;;;0.60;0.60;;;;;;;15.80;86.88;98835.38;104034;277;39879;-74
2023/08/07 02:26:26;;;;;;;2.40;0.70;;;;;;;15.80;86.93;98839.85;104040;277;38670;-73
2023/08/07 02:29:00;;;;;;;1.60;0.80;;;;;;;15.79;86.83;98849.77;104024;277;38468;-73
2023/08/07 02:31:36;;;;;;;1.40;0.90;;;;;;;15.76;87.08;98854.40;103938;277;175041;-75
2023/08/07 02:34:11;;;;;;;1.00;0.60;;;;;;;15.75;87.06;98854.83;104025;277;38802;-74
2023/08/07 02:36:45;;;;;;;1.50;1.00;;;;;;;15.75;87.18;98860.61;104044;277;38444;-75
2023/08/07 02:39:19;;;;;;;1.20;0.60;;;;;;;15.74;87.13;98866.02;104025;265;38442;-74
2023/08/07 02:41:54;;;;;;;0.80;0.80;;;;;;;15.70;87.39;98865.91;104067;277;38385;-76
2023/08/07 02:44:28;;;;;;;1.50;0.60;;;;;;;15.70;87.60;98860.91;104034;277;38211;-75
2023/08/07 02:47:02;;;;;;;0.70;0.60;;;;;;;15.70;87.48;98859.30;104038;277;38478;-73
2023/08/07 02:49:39;;;;;;;0.60;0.60;;;;;;;15.69;87.55;98857.60;104057;277;38772;-74
2023/08/07 02:52:13;;;;;;;1.10;0.50;;;;;;;15.64;87.44;98859.40;104043;277;38282;-73
2023/08/07 02:54:49;;;;;;;0.80;0.60;;;;;;;15.60;87.56;98867.48;104040;277;38489;-74
2023/08/07 02:57:23;;;;;;;0.50;0.50;;;;;;;15.59;87.76;98873.66;104044;277;38414;-75
2023/08/07 02:59:58;;;;;;;0.80;0.60;;;;;;;15.60;87.70;98886.66;103999;277;38672;-74
2023/08/07 03:02:32;;;;;;;0.90;0.70;;;;;;;15.57;87.74;98887.09;104020;277;39428;-75
2023/08/07 03:05:10;;;;;;;0.80;0.70;;;;;;;15.55;87.69;98878.96;104047;277;38656;-73
2023/08/07 03:07:44;;;;;;;1.00;0.60;;;;;;;15.54;87.62;98872.89;104078;265;38775;-73
2023/08/07 03:10:19;;;;;;;1.10;0.80;;;;;;;15.52;87.61;98865.17;104037;277;39982;-74
2023/08/07 03:12:53;;;;;;;0.60;0.60;;;;;;;15.50;87.72;98867.23;104063;277;38226;-72
2023/08/07 03:15:29;;;;;;;0.90;0.90;;;;;;;15.49;87.54;98875.95;103974;277;40115;-74
2023/08/07 03:18:04;;;;;;;1.00;0.60;;;;;;;15.44;87.58;98881.40;104079;277;38251;-74
2023/08/07 03:20:43;;;;;;;0.60;0.60;;;;;;;15.43;87.80;98876.23;103936;277;175116;-76
2023/08/07 03:23:17;;;;;;;2.00;0.80;;;;;;;15.41;87.79;98876.95;104089;277;38341;-72
2023/08/07 03:25:51;;;;;;;1.50;0.60;;;;;;;15.42;87.80;98881.27;104090;277;38841;-73
2023/08/07 03:28:27;;;;;;;1.50;0.70;;;;;;;15.40;88.02;98881.89;104037;277;39393;-74
2023/08/07 03:31:01;;;;;;;2.00;0.60;;;;;;;15.42;88.10;98889.85;104044;277;38238;-74
2023/08/07 03:33:35;;;;;;;0.80;0.60;;;;;;;15.44;88.12;98898.35;103757;277;175070;-73
2023/08/07 03:36:11;;;;;;;0.90;0.70;;;;;;;15.42;87.88;98900.55;104052;276;39122;-74
2023/08/07 03:38:45;;;;;;;0.80;0.80;;;;;;;15.43;88.00;98899.48;103843;277;38221;-74
2023/08/07 03:41:23;;;;;;;1.30;0.80;;;;;;;15.44;88.00;98905.70;104083;277;38304;-74
2023/08/07 03:43:59;;;;;;;2.40;0.80;;;;;;;15.45;87.90;98909.83;103611;277;640544;-72
2023/08/07 03:46:40;;;;;;;0.90;0.90;;;;;;;15.43;87.69;98916.65;103984;277;38348;-72
2023/08/07 03:49:15;;;;;;;0.70;0.60;;;;;;;15.43;87.85;98923.17;104021;277;38328;-72
2023/08/07 03:51:52;;;;;;;2.00;1.20;;;;;;;15.45;87.81;98920.72;103845;277;39399;-72
2023/08/07 03:54:29;;;;;;;1.50;0.80;;;;;;;15.44;87.73;98922.70;104003;277;38704;-73
2023/08/07 03:57:04;;;;;;;1.10;0.80;;;;;;;15.42;87.61;98929.38;104029;274;38512;-72
2023/08/07 03:59:43;;;;;;;1.20;1.00;;;;;;;15.42;87.61;98932.02;104039;277;38205;-73
2023/08/07 04:02:18;;;;;;;1.00;0.90;;;;;;;15.43;87.70;98932.34;104017;277;38497;-73
2023/08/07 04:04:52;;;;;;;1.80;1.00;;;;;;;15.43;87.96;98930.04;103986;277;39424;-74
2023/08/07 04:07:26;;;;;;;2.10;1.10;;;;;;;15.44;87.89;98925.38;104001;277;38400;-73
2023/08/07 04:10:00;;;;;;;2.10;1.00;;;;;;;15.42;87.96;98915.99;103955;277;38522;-75
2023/08/07 04:12:34;;;;;;;0.80;0.70;;;;;;;15.43;87.77;98905.06;104027;277;38279;-73
2023/08/07 04:15:11;;;;;;;1.60;0.90;;;;;;;15.42;87.72;98899.16;104016;277;38940;-73
2023/08/07 04:17:45;;;;;;;1.70;0.80;;;;;;;15.43;87.78;98899.29;104086;277;39600;-74
2023/08/07 04:20:22;;;;;;;2.40;1.00;;;;;;;15.45;87.90;98900.72;104093;275;38630;-73
2023/08/07 04:22:55;;;;;;;1.20;1.00;;;;;;;15.47;87.84;98904.02;104021;277;39440;-74
2023/08/07 04:25:32;;;;;;;1.70;0.70;;;;;;;15.51;87.89;98902.83;104009;277;39404;-74
2023/08/07 04:28:06;;;;;;;1.30;0.90;;;;;;;15.54;88.05;98905.57;104027;277;38324;-74
2023/08/07 04:30:43;;;;;;;2.00;0.90;;;;;;;15.57;88.03;98909.55;103973;277;38268;-73
2023/08/07 04:33:19;;;;;;;1.10;1.00;;;;;;;15.57;87.93;98917.66;104027;277;38272;-74
2023/08/07 04:35:53;;;;;;;1.10;0.90;;;;;;;15.57;87.85;98922.95;103787;279;39436;-73
2023/08/07 04:38:27;;;;;;;1.30;1.00;;;;;;;15.57;87.56;98919.20;103996;277;39649;-74
2023/08/07 04:41:02;;;;;;;1.40;0.80;;;;;;;15.60;87.62;98922.66;104096;277;39946;-74
2023/08/07 04:43:37;;;;;;;2.40;1.10;;;;;;;15.62;87.67;98925.87;103815;277;38284;-73
2023/08/07 04:46:13;;;;;;;1.30;0.70;;;;;;;15.66;87.74;98932.94;104017;266;38236;-73
2023/08/07 04:48:48;;;;;;;1.30;1.00;;;;;;;15.70;87.64;98945.27;104006;277;38414;-73
2023/08/07 04:51:23;;;;;;;1.80;0.90;;;;;;;15.72;87.47;98947.35;104058;277;38735;-73
2023/08/07 04:53:57;;;;;;;1.70;0.80;;;;;;;15.75;87.57;98945.71;103894;277;38292;-72
2023/08/07 04:56:32;;;;;;;1.10;0.80;;;;;;;15.79;87.40;98937.52;104043;277;38317;-72
2023/08/07 04:59:05;;;;;;;1.10;1.00;;;;;;;15.82;87.14;98933.02;104030;277;38845;-72
2023/08/07 05:01:39;;;;;;;1.20;0.80;;;;;;;15.82;86.81;98934.23;104011;277;38806;-72
2023/08/07 05:04:17;;;;;;;1.50;0.80;;;;;;;15.81;86.60;98940.67;104004;277;39404;-72
2023/08/07 05:06:50;;;;;;;1.20;0.80;;;;;;;15.81;86.77;98942.76;103734;279;174925;-74
2023/08/07 05:09:24;;;;;;;0.90;0.80;;;;;;;15.83;86.85;98947.16;103764;279;39977;-73
2023/08/07 05:11:58;;;;;;;1.00;0.60;;;;;;;15.83;86.69;98951.58;104043;277;38247;-72
2023/08/07 05:14:33;;;;;;;1.10;0.80;;;;;;;15.84;86.76;98955.69;103390;277;898743;-74
2023/08/07 05:17:07;;;;;;;1.10;0.80;;;;;;;15.87;86.67;98956.02;104038;277;38856;-75
2023/08/07 05:19:41;;;;;;;1.30;0.60;;;;;;;15.88;86.33;98957.11;104014;277;38514;-76
2023/08/07 05:22:16;;;;;;;0.90;0.70;;;;;;;15.90;86.30;98957.84;104056;277;38508;-72
2023/08/07 05:24:50;;;;;;;0.90;0.80;;;;;;;15.91;86.27;98960.09;104025;277;40072;-73
2023/08/07 05:27:25;;;;;;;1.40;1.00;;;;;;;15.89;86.41;98960.77;104025;277;39661;-72
2023/08/07 05:30:00;;;;;;;1.60;0.80;;;;;;;15.85;86.35;98958.43;104013;277;38524;-75
2023/08/07 05:32:37;;;;;;;1.90;1.00;;;;;;;15.83;86.52;98961.10;104036;277;38228;-74
2023/08/07 05:35:14;;;;;;;1.00;0.70;;;;;;;15.83;87.02;98966.02;103980;277;39405;-73
2023/08/07 05:37:50;;;;;;;1.50;0.80;;;;;;;15.82;86.59;98962.77;103994;277;38248;-74
2023/08/07 05:40:27;;;;;;;1.90;1.00;;;;;;;15.82;86.99;98959.20;104022;277;38262;-75
2023/08/07 05:43:07;;;;;;;1.00;0.90;;;;;;;15.84;87.10;98960.63;104024;277;39669;-75
2023/08/07 05:45:42;;;;;;;1.20;1.10;;;;;;;15.87;87.52;98965.66;103176;277;894966;-75
2023/08/07 05:48:19;;;;;;;1.50;1.10;;;;;;;15.91;87.64;98965.87;104011;277;38306;-75
2023/08/07 05:50:54;;;;;;;3.10;1.10;;;;;;;15.94;87.67;98965.98;104058;277;38336;-75
2023/08/07 05:53:28;;;;;;;1.30;0.90;;;;;;;15.96;87.51;98967.15;103985;277;38595;-75
2023/08/07 05:56:03;;;;;;;1.00;1.00;;;;;;;15.98;87.61;98966.67;103746;279;175087;-75
2023/08/07 05:58:37;;;;;;;1.00;0.90;;;;;;;15.98;87.54;98965.25;104020;277;39156;-75
2023/08/07 06:01:12;;;;;;;1.70;1.10;;;;;;;15.98;87.28;98968.75;104054;277;38457;-76
2023/08/07 06:03:46;;;;;;;2.20;1.20;;;;;;;15.98;87.43;98965.23;104068;277;39435;-75
2023/08/07 06:06:20;;;;;;;2.00;1.10;;;;;;;15.99;87.56;98963.94;104053;277;39893;-73
2023/08/07 06:08:55;;;;;;;1.40;1.30;;;;;;;15.97;87.39;98969.55;104021;277;38835;-73
2023/08/07 06:11:30;;;;;;;1.80;1.10;;;;;;;15.99;87.66;98967.11;103880;277;174651;-72
2023/08/07 06:14:04;;;;;;;1.80;1.10;;;;;;;16.01;87.69;98968.57;104007;277;38397;-74
2023/08/07 06:16:38;;;;;;;1.70;1.10;;;;;;;16.06;87.89;98968.20;104025;277;38954;-73
2023/08/07 06:19:13;;;;;;;1.90;1.70;;;;;;;16.06;87.11;98974.48;103999;277;38397;-75
2023/08/07 06:21:47;;;;;;;2.50;1.20;;;;;;;16.05;87.38;98971.02;104019;277;39505;-72
2023/08/07 06:24:22;;;;;;;2.30;1.10;;;;;;;16.08;87.34;98970.27;103850;279;38755;-73
2023/08/07 06:27:00;;;;;;;2.50;1.00;;;;;;;16.16;87.38;98972.25;104067;277;38505;-73
2023/08/07 06:29:35;;;;;;;1.50;1.40;;;;;;;16.23;87.12;98965.27;104035;277;38543;-73
2023/08/07 06:32:14;;;;;;;1.30;1.00;;;;;;;16.29;87.11;98966.23;104056;277;38223;-72
2023/08/07 06:34:46;;;;;;;;;;;;;;;16.35;86.73;98971.37;103979;277;38278;-72
2023/08/07 06:37:22;;;;;;;3.30;1.20;;;;;;;16.35;86.35;98979.44;104032;277;38528;-73
2023/08/07 06:39:56;;;;;;;4.00;1.20;;;;;;;16.37;86.49;98976.98;103993;277;39426;-74
2023/08/07 06:42:35;;;;;;;1.40;1.10;;;;;;;16.43;86.36;98982.09;104001;277;39640;-73
2023/08/07 06:45:15;;;;;;;1.20;1.00;;;;;;;16.48;86.08;98983.44;104000;277;39651;-74
2023/08/07 06:47:54;;;;;;;2.50;1.60;;;;;;;16.56;86.25;98982.79;104046;277;38495;-73
2023/08/07 06:50:31;;;;;;;2.60;1.30;;;;;;;16.61;85.72;98986.58;104032;277;38999;-73
2023/08/07 06:53:05;;;;;;;1.30;1.00;;;;;;;16.64;85.73;98987.05;103931;277;175116;-73
2023/08/07 06:55:41;;;;;;;2.00;1.00;;;;;;;16.70;85.95;98988.96;104039;277;39726;-74
2023/08/07 06:58:18;;;;;;;3.00;1.40;;;;;;;16.80;86.05;98993.77;104005;277;39991;-74
2023/08/07 07:00:52;;;;;;;2.40;1.30;;;;;;;16.90;85.58;98999.08;104032;277;38801;-75
2023/08/07 07:03:26;;;;;;;1.70;1.40;;;;;;;16.98;85.57;99006.34;104016;277;40677;-74
2023/08/07 07:06:02;;;;;;;2.10;1.10;;;;;;;17.09;85.16;99006.80;103908;279;39121;-74
2023/08/07 07:08:36;;;;;;;1.40;1.20;;;;;;;17.25;85.46;99007.54;103991;277;38241;-73
2023/08/07 07:11:10;;;;;;;2.10;1.20;;;;;;;17.37;84.55;99007.84;104032;277;38860;-74
2023/08/07 07:13:44;;;;;;;1.80;1.40;;;;;;;17.47;84.09;99004.17;103985;277;38708;-74
2023/08/07 07:16:21;;;;;;;1.50;1.30;;;;;;;17.55;84.00;99004.52;104016;277;38626;-74
2023/08/07 07:18:58;;;;;;;1.60;1.20;;;;;;;17.75;84.59;99005.90;104022;277;38253;-74
2023/08/07 07:21:32;;;;;;;2.00;1.30;;;;;;;17.94;83.90;99002.78;104034;277;38249;-74
2023/08/07 07:24:09;;;;;;;2.30;1.10;;;;;;;18.14;84.03;98996.77;104007;277;39668;-73
2023/08/07 07:26:46;;;;;;;2.10;0.90;;;;;;;18.29;82.90;99001.89;104046;277;38985;-74
2023/08/07 07:29:20;;;;;;;1.60;1.00;;;;;;;18.35;82.06;99002.77;103994;277;38803;-73
2023/08/07 07:31:55;;;;;;;2.10;1.20;;;;;;;18.28;80.27;99010.62;104018;277;38698;-74
2023/08/07 07:34:33;;;;;;;3.00;1.00;;;;;;;18.19;80.09;99020.81;103985;277;38631;-74
2023/08/07 07:37:07;;;;;;;1.50;0.90;;;;;;;18.08;79.48;99024.66;104014;277;39894;-73
2023/08/07 07:39:42;;;;;;;1.30;1.10;;;;;;;18.00;79.11;99028.78;104017;277;38239;-73
2023/08/07 07:42:20;;;;;;;3.70;1.10;;;;;;;17.89;78.30;99032.02;104028;277;39452;-72
2023/08/07 07:44:56;;;;;;;1.80;1.30;;;;;;;17.73;77.30;99034.52;103979;277;39440;-75
2023/08/07 07:47:30;;;;;;;1.90;1.10;;;;;;;17.59;77.76;99029.88;104051;277;39335;-73
2023/08/07 07:50:12;;;;;;;1.10;1.00;;;;;;;17.64;79.02;99027.88;104006;277;38476;-72
2023/08/07 07:52:50;;;;;;;1.00;0.90;;;;;;;17.74;78.95;99030.54;104055;277;38502;-72
2023/08/07 07:55:25;;;;;;;1.50;0.90;;;;;;;17.83;79.81;99025.73;103989;277;38445;-72
2023/08/07 07:58:01;;;;;;;1.70;1.10;;;;;;;17.90;79.03;99031.98;104047;277;38899;-73
2023/08/07 08:00:37;;;;;;;1.10;0.90;;;;;;;17.83;77.94;99027.48;104015;277;39944;-72
2023/08/07 08:03:12;;;;;;;1.40;1.30;;;;;;;17.71;77.40;99034.82;104034;277;38245;-74
2023/08/07 08:05:55;;;;;;;3.80;1.40;;;;;;;17.65;77.57;99032.57;104025;277;39394;-74
2023/08/07 08:08:32;;;;;;;1.90;1.60;;;;;;;17.78;78.62;99029.29;104075;277;38399;-75
2023/08/07 08:11:08;;;;;;;1.60;1.30;;;;;;;18.27;79.65;99031.27;104034;277;39664;-73
2023/08/07 08:13:44;;;;;;;1.40;1.10;;;;;;;18.72;78.18;99035.73;103683;277;172198;-73
2023/08/07 08:16:22;;;;;;;2.10;1.10;;;;;;;19.16;77.75;99033.55;104063;277;38279;-74
2023/08/07 08:18:56;;;;;;;2.00;1.80;;;;;;;19.34;75.51;99039.61;104012;277;38706;-74
2023/08/07 08:21:32;;;;;;;1.60;1.20;;;;;;;19.28;72.93;99042.45;103847;277;38418;-74
2023/08/07 08:24:07;;;;;;;1.70;1.20;;;;;;;19.14;71.40;99051.27;103981;277;38850;-74
2023/08/07 08:26:42;;;;;;;2.00;1.40;;;;;;;18.96;71.42;99054.84;104047;277;38217;-75
2023/08/07 08:29:18;;;;;;;1.80;1.00;;;;;;;18.83;71.19;99053.63;103813;277;38260;-74
2023/08/07 08:31:54;;;;;;;1.60;1.10;;;;;;;18.70;71.48;99058.34;104042;277;39430;-74
2023/08/07 08:34:31;;;;;;;2.50;2.10;;;;;;;18.58;71.46;99059.13;103998;277;39435;-74
2023/08/07 08:37:07;;;;;;;3.90;2.50;;;;;;;18.45;71.41;99066.82;104050;277;39437;-72
2023/08/07 08:39:41;;;;;;;5.30;3.00;;;;;;;18.33;71.43;99067.56;103993;277;39683;-74
2023/08/07 08:42:17;;;;;;;3.50;2.90;;;;;;;18.33;72.54;99071.43;104013;277;39625;-74
2023/08/07 08:44:54;;;;;;;2.20;1.20;;;;;;;18.55;72.70;99068.92;103819;277;38632;-74
2023/08/07 08:47:29;;;;;;;2.80;1.00;;;;;;;18.74;72.69;99069.15;104020;277;39449;-74
2023/08/07 08:50:07;;;;;;;1.80;1.10;;;;;;;18.95;73.10;99062.02;103751;279;38514;-73
2023/08/07 08:52:44;;;;;;;2.10;1.20;;;;;;;19.14;72.09;99060.82;104028;277;38437;-72
2023/08/07 08:55:22;;;;;;;1.20;0.90;;;;;;;19.21;71.34;99052.71;104003;277;39650;-72
2023/08/07 08:58:00;;;;;;;1.70;1.00;;;;;;;19.23;70.56;99051.33;104037;277;38586;-74
2023/08/07 09:00:36;;;;;;;2.70;1.20;;;;;;;19.18;70.06;99049.65;103978;277;38242;-73
2023/08/07 09:03:12;;;;;;;1.20;1.00;;;;;;;19.14;69.71;99051.31;104062;277;39454;-74
2023/08/07 09:05:50;;;;;;;1.20;1.10;;;;;;;19.12;69.73;99059.77;103976;277;38269;-73
2023/08/07 09:08:31;;;;;;;4.30;1.40;;;;;;;19.29;70.58;99068.02;103870;277;38366;-76
2023/08/07 09:11:07;;;;;;;1.40;1.10;;;;;;;20.14;71.00;99062.89;103778;277;38359;-75
2023/08/07 09:13:42;;;;;;;1.50;0.90;;;;;;;20.55;68.72;99065.83;104010;277;39968;-75
2023/08/07 09:16:16;;;;;;;1.60;0.90;;;;;;;20.83;67.85;99069.09;104083;277;38389;-72
2023/08/07 09:18:51;;;;;;;1.10;1.00;;;;;;;20.97;66.23;99074.55;103776;277;174769;-73
2023/08/07 09:21:25;;;;;;;1.20;0.90;;;;;;;21.67;67.97;99076.72;104086;277;39407;-73
2023/08/07 09:24:00;;;;;;;1.80;0.90;;;;;;;22.71;65.15;99079.45;104058;277;38221;-73
2023/08/07 09:26:34;;;;;;;1.90;1.00;;;;;;;23.51;63.24;99085.79;104037;277;38264;-74
2023/08/07 09:29:10;;;;;;;2.30;1.00;;;;;;;23.90;58.99;99097.89;103819;277;39141;-74
2023/08/07 09:31:48;;;;;;;1.00;0.80;;;;;;;23.89;56.96;99106.04;104027;277;39425;-76
2023/08/07 09:34:29;;;;;;;0.90;0.80;;;;;;;23.83;55.54;99110.41;104033;277;38458;-76
2023/08/07 09:37:05;;;;;;;0.80;0.70;;;;;;;23.56;53.56;99120.08;104007;277;38939;-73
2023/08/07 09:39:42;;;;;;;1.80;0.70;;;;;;;23.14;54.13;99125.11;104014;277;38425;-73
2023/08/07 09:42:19;;;;;;;2.40;0.90;;;;;;;22.76;53.76;99138.14;103862;277;38861;-73
2023/08/07 09:44:54;;;;;;;2.30;0.80;;;;;;;22.34;53.89;99150.64;104009;277;38712;-74
2023/08/07 09:47:32;;;;;;;2.60;0.90;;;;;;;22.10;55.10;99153.52;104042;277;38554;-74
2023/08/07 09:50:07;;;;;;;3.70;1.10;;;;;;;21.96;55.60;99153.47;104006;277;38255;-75
2023/08/07 09:52:42;;;;;;;2.60;0.80;;;;;;;21.77;55.30;99154.48;103915;277;40140;-73
2023/08/07 09:55:16;;;;;;;2.60;0.90;;;;;;;21.66;55.55;99156.41;103718;277;174737;-74
2023/08/07 09:57:52;;;;;;;3.40;1.10;;;;;;;21.59;55.05;99157.23;104054;277;38258;-74
2023/08/07 10:00:26;;;;;;;1.10;0.70;;;;;;;21.60;55.75;99151.34;104064;277;38337;-74
2023/08/07 10:03:03;;;;;;;1.20;0.70;;;;;;;21.67;56.20;99156.82;104079;277;38236;-73
2023/08/07 10:05:37;;;;;;;3.70;1.10;;;;;;;21.69;56.04;99160.81;104016;277;38580;-74
2023/08/07 10:08:14;;;;;;;1.20;0.80;;;;;;;21.66;55.32;99159.15;103853;277;38625;-75
2023/08/07 10:10:53;;;;;;;0.70;0.70;;;;;;;21.55;54.83;99153.54;103978;277;38517;-74
2023/08/07 10:13:28;;;;;;;1.10;0.80;;;;;;;21.65;56.03;99154.33;103997;277;38349;-73
2023/08/07 10:16:03;;;;;;;1.00;0.60;;;;;;;21.89;56.39;99144.55;104085;277;38725;-75
2023/08/07 10:18:37;;;;;;;2.80;0.70;;;;;;;22.01;55.84;99146.10;104018;277;39422;-76
2023/08/07 10:21:14;;;;;;;0.70;0.70;;;;;;;22.03;55.15;99150.69;103837;277;174411;-74
2023/08/07 10:23:48;;;;;;;2.00;0.70;;;;;;;21.98;55.37;99149.84;104045;277;38486;-72
2023/08/07 10:26:24;;;;;;;1.00;0.90;;;;;;;21.89;55.00;99151.65;103860;279;38747;-74
2023/08/07 10:28:58;;;;;;;0.70;0.70;;;;;;;21.78;55.17;99152.27;103885;277;174791;-74
2023/08/07 10:31:33;;;;;;;2.40;1.10;;;;;;;21.71;54.63;99154.79;104023;277;38307;-75
2023/08/07 10:34:08;;;;;;;2.00;1.10;;;;;;;21.59;54.51;99160.63;103988;277;38720;-75
2023/08/07 10:36:43;;;;;;;2.10;0.80;;;;;;;21.50;55.08;99158.37;104023;277;39085;-74
2023/08/07 10:39:18;;;;;;;2.20;2.00;;;;;;;21.47;55.13;99162.78;103980;277;39400;-72
2023/08/07 10:41:55;;;;;;;2.90;1.20;;;;;;;21.45;55.25;99155.48;104037;269;38237;-74
2023/08/07 10:44:33;;;;;;;3.20;1.80;;;;;;;21.56;56.19;99154.88;104010;277;39382;-73
2023/08/07 10:47:08;;;;;;;2.20;1.50;;;;;;;21.87;56.28;99158.63;104089;269;39720;-74
2023/08/07 10:49:43;;;;;;;1.30;0.90;;;;;;;22.02;55.11;99162.22;103852;277;39473;-73
2023/08/07 10:52:17;;;;;;;4.00;1.20;;;;;;;22.07;55.04;99157.91;104026;277;39390;-74
2023/08/07 10:54:55;;;;;;;1.40;0.70;;;;;;;22.09;54.39;99159.15;104004;277;38237;-74
2023/08/07 10:57:34;;;;;;;2.50;1.30;;;;;;;22.18;54.68;99147.38;104018;277;38534;-75
2023/08/07 11:00:09;;;;;;;;;;;;;;;22.31;54.70;99152.20;104035;277;38791;-76
2023/08/07 11:02:49;;;;;;;2.00;1.00;;;;;;;22.35;53.75;99148.59;104069;277;38644;-74
2023/08/07 11:05:28;;;;;;;2.50;1.00;;;;;;;22.34;53.19;99147.99;104049;277;39480;-74
2023/08/07 11:08:02;;;;;;;1.00;0.90;;;;;;;22.49;52.57;99147.51;104047;277;39679;-74
2023/08/07 11:10:39;;;;;;;1.10;0.80;;;;;;;22.59;52.38;99152.56;103980;277;38466;-74
2023/08/07 11:13:17;;;;;;;2.90;0.90;;;;;;;22.63;51.49;99157.86;104038;277;38501;-76
2023/08/07 11:15:52;;;;;;;2.10;0.80;;;;;;;22.59;51.06;99164.35;104068;277;39647;-76
2023/08/07 11:18:26;;;;;;;1.30;1.00;;;;;;;22.49;49.92;99169.87;104007;277;38422;-74
2023/08/07 11:21:01;;;;;;;1.80;0.80;;;;;;;22.31;49.60;99173.52;103830;279;38306;-75
2023/08/07 11:23:36;;;;;;;0.90;0.80;;;;;;;22.23;49.83;99178.36;103966;277;38240;-75
2023/08/07 11:26:10;;;;;;;1.00;0.70;;;;;;;22.21;50.50;99178.48;104072;277;38229;-74
2023/08/07 11:28:47;;;;;;;1.30;0.70;;;;;;;22.31;50.78;99172.86;103977;277;39963;-74
2023/08/07 11:31:24;;;;;;;1.80;0.80;;;;;;;22.49;50.84;99174.52;104040;277;39561;-76
2023/08/07 11:34:02;;;;;;;2.90;0.80;;;;;;;22.62;50.47;99173.09;103907;277;174767;-76
2023/08/07 11:36:43;;;;;;;2.10;0.90;;;;;;;22.61;50.17;99168.20;103839;277;39476;-75
2023/08/07 11:39:24;;;;;;;1.10;0.90;;;;;;;22.58;50.50;99165.55;104001;277;39657;-75
2023/08/07 11:42:00;;;;;;;1.20;1.00;;;;;;;22.47;49.90;99164.00;103817;277;39574;-74
2023/08/07 11:44:39;;;;;;;2.30;0.80;;;;;;;22.32;49.29;99162.46;103367;277;687032;-74
2023/08/07 11:47:14;;;;;;;1.30;0.90;;;;;;;22.15;48.86;99160.80;103939;277;174802;-74
2023/08/07 11:49:51;;;;;;;2.60;0.90;;;;;;;22.02;48.94;99159.67;103901;277;174397;-74
2023/08/07 11:52:26;;;;;;;1.70;1.00;;;;;;;21.94;49.22;99162.13;103822;279;39355;-74
2023/08/07 11:55:01;;;;;;;1.50;0.90;;;;;;;21.95;49.56;99168.57;103987;277;38240;-75
2023/08/07 11:57:39;;;;;;;1.30;0.80;;;;;;;21.99;49.36;99168.56;103814;277;38797;-76
2023/08/07 12:00:15;;;;;;;2.00;0.80;;;;;;;21.99;49.30;99167.29;103804;279;39423;-75
2023/08/07 12:02:53;;;;;;;1.90;0.90;;;;;;;21.91;49.11;99174.49;103904;274;174719;-75
2023/08/07 12:05:30;;;;;;;2.10;1.00;;;;;;;21.88;49.28;99176.08;103969;277;38226;-75
2023/08/07 12:08:04;;;;;;;1.20;1.00;;;;;;;21.87;49.46;99180.80;103838;279;38398;-73
2023/08/07 12:10:45;;;;;;;1.70;1.10;;;;;;;21.78;49.34;99181.42;103995;277;39611;-74
2023/08/07 12:13:24;;;;;;;2.90;1.00;;;;;;;21.59;49.69;99189.38;104012;277;39932;-73